createdAt,value
2019-05-30T00:00:07.718Z,7.50
2019-05-30T00:02:24.916Z,7.50
2019-05-30T00:04:56.053Z,7.50
2019-05-30T00:07:28.041Z,7.40
2019-05-30T00:09:58.427Z,7.40
2019-05-30T00:12:30.829Z,7.30
2019-05-30T00:15:04.692Z,7.30
2019-05-30T00:17:33.014Z,7.30
2019-05-30T00:20:03.545Z,7.30
2019-05-30T00:22:34.788Z,7.30
2019-05-30T00:25:08.988Z,7.40
2019-05-30T00:27:39.167Z,7.40
2019-05-30T00:30:23.978Z,7.50
2019-05-30T00:32:42.383Z,7.40
2019-05-30T00:35:12.665Z,7.50
2019-05-30T00:37:42.877Z,7.50
2019-05-30T00:40:13.192Z,7.50
2019-05-30T00:42:43.464Z,7.50
2019-05-30T00:45:20.977Z,7.30
2019-05-30T00:47:47.600Z,7.30
2019-05-30T00:50:18.023Z,7.30
2019-05-30T00:52:50.255Z,7.30
2019-05-30T00:55:20.486Z,7.20
2019-05-30T00:57:50.594Z,7.10
2019-05-30T01:00:43.968Z,7.10
2019-05-30T01:03:12.257Z,7.00
2019-05-30T01:05:42.384Z,7.10
2019-05-30T01:08:12.575Z,7.10
2019-05-30T01:10:42.832Z,7.10
2019-05-30T01:13:12.949Z,7.10
2019-05-30T01:15:43.126Z,7.10
2019-05-30T01:18:13.558Z,7.10
2019-05-30T01:20:45.976Z,7.20
2019-05-30T01:23:16.356Z,7.20
2019-05-30T01:25:46.447Z,7.30
2019-05-30T01:28:18.492Z,7.30
2019-05-30T01:30:59.605Z,7.30
2019-05-30T01:33:22.334Z,7.30
2019-05-30T01:35:53.147Z,7.10
2019-05-30T01:38:23.245Z,7.00
2019-05-30T01:40:54.626Z,6.80
2019-05-30T01:43:29.001Z,6.70
2019-05-30T01:46:02.129Z,6.80
2019-05-30T01:48:34.773Z,6.70
2019-05-30T01:51:04.861Z,6.70
2019-05-30T01:53:35.146Z,6.70
2019-05-30T01:56:05.311Z,6.80
2019-05-30T01:58:35.379Z,6.80
2019-05-30T02:01:23.744Z,6.80
2019-05-30T02:03:43.070Z,6.80
2019-05-30T02:06:15.218Z,6.80
2019-05-30T02:08:46.160Z,6.80
2019-05-30T02:11:17.453Z,6.80
2019-05-30T02:13:48.926Z,6.70
2019-05-30T02:16:19.037Z,6.60
2019-05-30T02:18:49.179Z,6.50
2019-05-30T02:21:21.411Z,6.50
2019-05-30T02:23:54.651Z,6.50
2019-05-30T02:26:25.118Z,6.50
2019-05-30T02:28:55.194Z,6.50
2019-05-30T02:31:38.336Z,6.50
2019-05-30T02:33:57.943Z,6.50
2019-05-30T02:36:28.012Z,6.50
2019-05-30T02:38:58.124Z,6.30
2019-05-30T02:41:28.164Z,6.30
2019-05-30T02:44:01.240Z,6.30
2019-05-30T02:46:34.419Z,6.40
2019-05-30T02:49:06.607Z,6.30
2019-05-30T02:51:36.357Z,6.20
2019-05-30T02:54:08.695Z,6.20
2019-05-30T02:56:38.246Z,6.20
2019-05-30T02:59:11.564Z,6.20
2019-05-30T03:01:58.996Z,6.20
2019-05-30T03:04:15.454Z,6.20
2019-05-30T03:06:45.731Z,6.20
2019-05-30T03:09:17.657Z,6.20
2019-05-30T03:11:48.251Z,6.30
2019-05-30T03:14:23.710Z,6.10
2019-05-30T03:16:54.468Z,6.00
2019-05-30T03:19:24.684Z,6.00
2019-05-30T03:21:55.668Z,5.90
2019-05-30T03:24:27.833Z,5.80
2019-05-30T03:26:57.916Z,5.80
2019-05-30T03:29:28.014Z,5.90
2019-05-30T03:32:38.953Z,5.90
2019-05-30T03:34:34.416Z,5.90
2019-05-30T03:37:08.568Z,6.00
2019-05-30T03:39:36.313Z,6.00
2019-05-30T03:42:07.495Z,6.00
2019-05-30T03:44:38.787Z,6.00
2019-05-30T03:47:15.491Z,6.10
2019-05-30T03:49:48.443Z,6.10
2019-05-30T03:52:23.206Z,6.20
2019-05-30T03:54:53.373Z,6.20
2019-05-30T03:57:28.234Z,6.10
2019-05-30T04:00:06.193Z,6.10
2019-05-30T04:02:59.702Z,6.20
2019-05-30T04:05:34.109Z,6.20
2019-05-30T04:08:09.050Z,6.20
2019-05-30T04:10:42.632Z,6.30
2019-05-30T04:13:21.658Z,6.40
2019-05-30T04:15:54.120Z,6.50
2019-05-30T04:18:28.159Z,6.60
2019-05-30T04:20:58.610Z,6.60
2019-05-30T04:23:28.814Z,6.70
2019-05-30T04:26:00.871Z,6.70
2019-05-30T04:28:31.577Z,6.80
2019-05-30T04:33:37.042Z,6.90
2019-05-30T04:36:08.422Z,6.90
2019-05-30T04:38:39.602Z,7.00
2019-05-30T04:41:11.206Z,7.10
2019-05-30T04:43:41.492Z,7.10
2019-05-30T04:46:13.972Z,7.20
2019-05-30T04:48:45.284Z,7.30
2019-05-30T04:51:19.585Z,7.40
2019-05-30T04:53:50.408Z,7.50
2019-05-30T04:56:24.112Z,7.60
2019-05-30T04:58:55.282Z,7.70
2019-05-30T05:01:29.494Z,7.80
2019-05-30T05:04:00.223Z,7.90
2019-05-30T05:06:35.619Z,8.00
2019-05-30T05:09:09.397Z,8.00
2019-05-30T05:11:39.867Z,8.10
2019-05-30T05:14:09.981Z,8.20
2019-05-30T05:16:40.261Z,8.40
2019-05-30T05:19:12.892Z,8.50
2019-05-30T05:21:43.362Z,8.60
2019-05-30T05:24:13.487Z,8.70
2019-05-30T05:26:44.812Z,8.90
2019-05-30T05:29:15.815Z,9.00
2019-05-30T05:31:49.839Z,9.20
2019-05-30T05:34:22.799Z,9.40
2019-05-30T05:36:55.887Z,9.50
2019-05-30T05:39:29.129Z,9.70
2019-05-30T05:42:00.021Z,9.80
2019-05-30T05:44:30.099Z,9.90
2019-05-30T05:47:00.176Z,10.10
2019-05-30T05:49:31.518Z,10.30
2019-05-30T05:52:01.881Z,10.40
2019-05-30T05:54:31.948Z,10.60
2019-05-30T05:57:02.224Z,10.70
2019-05-30T05:59:33.884Z,10.80
2019-05-30T06:02:06.217Z,11.00
2019-05-30T06:04:39.652Z,11.10
2019-05-30T06:07:09.779Z,11.30
2019-05-30T06:09:39.859Z,11.40
2019-05-30T06:12:10.737Z,11.40
2019-05-30T06:14:41.672Z,11.50
2019-05-30T06:17:13.979Z,11.70
2019-05-30T06:19:51.256Z,11.80
2019-05-30T06:22:21.851Z,11.90
2019-05-30T06:25:05.359Z,12.10
2019-05-30T06:27:37.503Z,12.20
2019-05-30T06:30:10.833Z,12.20
2019-05-30T06:32:44.291Z,12.40
2019-05-30T06:35:14.931Z,12.50
2019-05-30T06:37:45.028Z,12.50
2019-05-30T06:40:19.460Z,12.60
2019-05-30T06:42:49.712Z,12.60
2019-05-30T06:45:23.663Z,12.70
2019-05-30T06:47:55.465Z,12.70
2019-05-30T06:50:30.972Z,12.80
2019-05-30T06:53:03.454Z,12.90
2019-05-30T06:55:33.869Z,13.00
2019-05-30T06:58:04.693Z,13.00
2019-05-30T07:00:36.385Z,13.10
2019-05-30T07:03:06.736Z,13.10
2019-05-30T07:05:37.713Z,13.10
2019-05-30T07:08:08.277Z,13.20
2019-05-30T07:10:38.440Z,13.30
2019-05-30T07:13:09.092Z,13.40
2019-05-30T07:15:39.214Z,13.60
2019-05-30T07:18:09.686Z,13.70
2019-05-30T07:20:41.694Z,13.70
2019-05-30T07:23:12.076Z,13.80
2019-05-30T07:25:42.200Z,13.90
2019-05-30T07:28:13.259Z,14.00
2019-05-30T07:30:43.988Z,14.00
2019-05-30T07:33:16.160Z,14.00
2019-05-30T07:35:46.304Z,14.20
2019-05-30T07:38:17.500Z,14.20
2019-05-30T07:40:53.129Z,14.30
2019-05-30T07:43:25.390Z,14.50
2019-05-30T07:45:58.291Z,14.70
2019-05-30T07:48:30.094Z,14.80
2019-05-30T07:51:01.565Z,14.90
2019-05-30T07:53:34.981Z,15.00
2019-05-30T07:56:08.334Z,15.10
2019-05-30T07:58:38.464Z,15.20
2019-05-30T08:01:12.969Z,15.20
2019-05-30T08:03:43.115Z,15.30
2019-05-30T08:06:13.645Z,15.40
2019-05-30T08:08:45.940Z,15.50
2019-05-30T08:11:16.041Z,15.50
2019-05-30T08:13:50.806Z,15.60
2019-05-30T08:16:25.529Z,15.70
2019-05-30T08:18:56.913Z,15.90
2019-05-30T08:21:28.250Z,16.10
2019-05-30T08:24:02.339Z,16.20
2019-05-30T08:26:34.223Z,16.30
2019-05-30T08:29:04.655Z,16.40
2019-05-30T08:31:36.894Z,16.40
2019-05-30T08:34:14.017Z,16.30
2019-05-30T08:36:45.976Z,16.50
2019-05-30T08:39:16.976Z,16.50
2019-05-30T08:41:47.077Z,16.60
2019-05-30T08:44:17.485Z,16.60
2019-05-30T08:46:47.604Z,16.70
2019-05-30T08:49:17.969Z,16.80
2019-05-30T08:51:50.142Z,16.90
2019-05-30T08:54:20.609Z,17.00
2019-05-30T08:56:50.773Z,17.30
2019-05-30T08:59:20.934Z,17.50
2019-05-30T09:01:53.236Z,17.60
2019-05-30T09:04:23.829Z,17.70
2019-05-30T09:06:54.393Z,17.90
2019-05-30T09:09:24.525Z,18.00
2019-05-30T09:11:55.249Z,17.70
2019-05-30T09:14:27.051Z,17.70
2019-05-30T09:16:59.219Z,17.80
2019-05-30T09:19:29.295Z,17.90
2019-05-30T09:22:03.681Z,17.80
2019-05-30T09:24:33.887Z,17.90
2019-05-30T09:27:04.600Z,18.20
2019-05-30T09:29:35.123Z,18.30
2019-05-30T09:32:05.842Z,18.30
2019-05-30T09:34:38.530Z,18.20
2019-05-30T09:37:10.952Z,18.30
2019-05-30T09:39:41.677Z,18.60
2019-05-30T09:42:14.896Z,18.70
2019-05-30T09:44:50.987Z,18.80
2019-05-30T09:47:23.944Z,19.10
2019-05-30T09:49:55.504Z,19.20
2019-05-30T09:52:26.228Z,19.30
2019-05-30T09:54:56.725Z,19.30
2019-05-30T09:57:30.297Z,19.40
2019-05-30T10:00:00.865Z,19.60
2019-05-30T10:02:33.140Z,19.70
2019-05-30T10:05:07.522Z,19.90
2019-05-30T10:07:38.915Z,20.10
2019-05-30T10:10:11.010Z,20.20
2019-05-30T10:12:41.117Z,20.40
2019-05-30T10:15:12.028Z,20.20
2019-05-30T10:17:42.157Z,20.00
2019-05-30T10:20:13.193Z,19.80
2019-05-30T10:22:44.518Z,19.60
2019-05-30T10:25:15.852Z,19.30
2019-05-30T10:27:53.216Z,19.10
2019-05-30T10:30:24.342Z,19.00
2019-05-30T10:32:55.747Z,18.80
2019-05-30T10:35:29.629Z,18.80
2019-05-30T10:37:58.279Z,18.60
2019-05-30T10:40:32.052Z,18.50
2019-05-30T10:43:01.457Z,18.40
2019-05-30T10:45:31.971Z,18.40
2019-05-30T10:48:02.979Z,18.30
2019-05-30T10:50:35.213Z,18.40
2019-05-30T10:53:09.114Z,18.40
2019-05-30T10:55:41.075Z,18.60
2019-05-30T10:58:11.540Z,18.80
2019-05-30T11:00:55.568Z,18.80
2019-05-30T11:03:27.063Z,18.80
2019-05-30T11:06:08.657Z,18.80
2019-05-30T11:08:40.548Z,18.80
2019-05-30T11:11:11.065Z,19.00
2019-05-30T11:13:41.646Z,19.20
2019-05-30T11:16:13.218Z,19.30
2019-05-30T11:18:44.653Z,19.40
2019-05-30T11:21:14.719Z,19.50
2019-05-30T11:23:45.562Z,19.60
2019-05-30T11:26:16.083Z,19.80
2019-05-30T11:28:46.521Z,20.20
2019-05-30T11:31:18.329Z,20.40
2019-05-30T11:33:48.808Z,20.20
2019-05-30T11:36:19.440Z,20.30
2019-05-30T11:38:52.405Z,20.50
2019-05-30T11:41:22.840Z,20.80
2019-05-30T11:43:53.555Z,21.00
2019-05-30T11:46:25.336Z,21.10
2019-05-30T11:48:56.311Z,20.90
2019-05-30T11:51:26.434Z,20.80
2019-05-30T11:53:57.989Z,20.80
2019-05-30T11:56:28.224Z,20.70
2019-05-30T11:58:58.367Z,20.60
2019-05-30T12:01:28.459Z,20.60
2019-05-30T12:03:58.838Z,20.60
2019-05-30T12:06:28.944Z,20.50
2019-05-30T12:08:59.454Z,20.90
2019-05-30T12:11:29.532Z,21.30
2019-05-30T12:13:59.619Z,21.60
2019-05-30T12:16:29.734Z,21.60
2019-05-30T12:18:59.960Z,21.60
2019-05-30T12:21:30.111Z,21.70
2019-05-30T12:24:00.710Z,21.80
2019-05-30T12:26:33.826Z,22.00
2019-05-30T12:29:02.999Z,22.10
2019-05-30T12:31:33.421Z,22.10
2019-05-30T12:34:03.526Z,22.20
2019-05-30T12:36:33.580Z,22.40
2019-05-30T12:39:04.803Z,22.60
2019-05-30T12:41:35.277Z,22.30
2019-05-30T12:44:05.675Z,21.90
2019-05-30T12:46:36.138Z,21.90
2019-05-30T12:49:12.587Z,22.10
2019-05-30T12:51:48.671Z,22.00
2019-05-30T12:54:19.809Z,21.80
2019-05-30T12:56:50.945Z,21.60
2019-05-30T12:59:21.089Z,21.50
2019-05-30T13:01:51.886Z,21.50
2019-05-30T13:04:24.434Z,21.60
2019-05-30T13:06:59.370Z,21.80
2019-05-30T13:09:29.909Z,21.80
2019-05-30T13:12:12.847Z,21.80
2019-05-30T13:14:47.049Z,21.80
2019-05-30T13:17:19.148Z,21.60
2019-05-30T13:19:49.214Z,21.70
2019-05-30T13:22:20.788Z,21.60
2019-05-30T13:24:52.132Z,21.50
2019-05-30T13:27:24.299Z,22.10
2019-05-30T13:29:56.198Z,22.90
2019-05-30T13:32:29.883Z,24.40
2019-05-30T13:35:05.790Z,25.50
2019-05-30T13:37:39.943Z,27.80
2019-05-30T13:40:24.308Z,29.40
2019-05-30T13:42:46.821Z,29.90
2019-05-30T13:45:17.261Z,29.10
2019-05-30T13:47:48.703Z,29.20
2019-05-30T13:50:19.229Z,27.70
2019-05-30T13:52:49.310Z,27.10
2019-05-30T13:55:19.583Z,27.40
2019-05-30T13:57:49.678Z,29.50
2019-05-30T14:00:22.981Z,28.90
2019-05-30T14:02:55.183Z,27.60
2019-05-30T14:05:25.380Z,26.60
2019-05-30T14:07:56.541Z,28.00
2019-05-30T14:10:30.015Z,28.60
2019-05-30T14:13:00.746Z,30.60
2019-05-30T14:15:30.942Z,32.00
2019-05-30T14:18:07.238Z,32.90
2019-05-30T14:20:37.658Z,31.60
2019-05-30T14:23:07.847Z,30.40
2019-05-30T14:30:38.031Z,26.50
2019-05-30T14:33:08.510Z,26.30
2019-05-30T14:35:38.773Z,25.40
2019-05-30T14:38:08.937Z,24.80
2019-05-30T14:40:38.968Z,24.30
2019-05-30T14:43:09.927Z,23.90
2019-05-30T14:45:40.077Z,23.60
2019-05-30T14:48:10.625Z,23.20
2019-05-30T14:50:40.973Z,23.10
2019-05-30T14:53:11.261Z,23.00
2019-05-30T14:55:41.545Z,23.00
2019-05-30T14:58:11.728Z,23.00
2019-05-30T15:00:43.373Z,23.10
2019-05-30T15:03:15.852Z,23.10
2019-05-30T15:05:46.081Z,23.30
2019-05-30T15:08:18.253Z,23.40
2019-05-30T15:10:48.509Z,23.40
2019-05-30T15:13:18.775Z,23.50
2019-05-30T15:15:48.936Z,23.30
2019-05-30T15:18:20.016Z,23.30
2019-05-30T15:20:51.384Z,23.20
2019-05-30T15:23:21.658Z,23.20
2019-05-30T15:25:52.244Z,23.10
2019-05-30T15:28:22.875Z,22.90
2019-05-30T15:30:53.192Z,22.80
2019-05-30T15:33:23.422Z,22.40
2019-05-30T15:35:55.493Z,22.30
2019-05-30T15:38:25.596Z,22.40
2019-05-30T15:40:55.831Z,22.30
2019-05-30T15:43:25.925Z,22.40
2019-05-30T15:45:56.983Z,22.50
2019-05-30T15:48:27.072Z,22.30
2019-05-30T15:50:57.335Z,22.30
2019-05-30T15:53:27.413Z,22.50
2019-05-30T15:55:57.767Z,22.40
2019-05-30T15:58:28.828Z,22.50
2019-05-30T16:00:59.024Z,22.60
2019-05-30T16:03:29.246Z,22.60
2019-05-30T16:05:59.540Z,22.60
2019-05-30T16:08:30.152Z,22.30
2019-05-30T16:11:00.444Z,22.30
2019-05-30T16:13:30.685Z,22.40
2019-05-30T16:16:00.941Z,22.40
2019-05-30T16:18:31.421Z,22.50
2019-05-30T16:21:01.628Z,22.40
2019-05-30T16:23:33.779Z,22.20
2019-05-30T16:26:03.975Z,22.20
2019-05-30T16:28:34.981Z,22.10
2019-05-30T16:31:05.097Z,22.10
2019-05-30T16:33:37.973Z,22.00
2019-05-30T16:36:08.079Z,21.90
2019-05-30T16:38:38.199Z,21.90
2019-05-30T16:41:09.339Z,21.80
2019-05-30T16:43:40.273Z,21.60
2019-05-30T16:46:10.732Z,21.40
2019-05-30T16:48:40.970Z,21.40
2019-05-30T16:51:11.038Z,21.50
2019-05-30T16:53:41.386Z,21.60
2019-05-30T16:56:13.214Z,21.70
2019-05-30T16:58:43.377Z,21.90
2019-05-30T17:01:13.500Z,21.90
2019-05-30T17:03:43.660Z,21.90
2019-05-30T17:06:14.344Z,21.70
2019-05-30T17:08:44.430Z,21.70
2019-05-30T17:11:15.333Z,21.70
2019-05-30T17:13:45.609Z,21.90
2019-05-30T17:16:17.810Z,22.40
2019-05-30T17:18:48.022Z,23.20
2019-05-30T17:21:18.345Z,23.30
2019-05-30T17:23:49.064Z,23.30
2019-05-30T17:26:21.220Z,23.20
2019-05-30T17:28:51.529Z,23.10
2019-05-30T17:31:21.848Z,22.90
2019-05-30T17:33:53.155Z,22.70
2019-05-30T17:36:24.245Z,22.70
2019-05-30T17:38:54.416Z,22.60
2019-05-30T17:41:24.838Z,22.30
2019-05-30T17:43:54.983Z,22.00
2019-05-30T17:46:25.727Z,21.60
2019-05-30T17:48:55.994Z,21.40
2019-05-30T17:51:26.078Z,21.30
2019-05-30T17:53:56.284Z,21.20
2019-05-30T17:56:26.435Z,21.10
2019-05-30T17:58:56.555Z,21.00
2019-05-30T18:01:28.201Z,20.90
2019-05-30T18:04:01.893Z,20.70
2019-05-30T18:06:32.003Z,20.70
2019-05-30T18:09:23.098Z,20.50
2019-05-30T18:11:54.371Z,20.50
2019-05-30T18:14:25.088Z,20.40
2019-05-30T18:16:55.489Z,20.30
2019-05-30T18:19:27.275Z,20.30
2019-05-30T18:21:58.167Z,20.20
2019-05-30T18:24:35.770Z,20.20
2019-05-30T18:27:06.040Z,20.20
2019-05-30T18:29:36.182Z,20.10
2019-05-30T18:32:06.504Z,20.10
2019-05-30T18:34:36.797Z,20.10
2019-05-30T18:37:06.918Z,20.00
2019-05-30T18:39:37.000Z,19.90
2019-05-30T18:42:08.759Z,19.90
2019-05-30T18:44:39.235Z,19.80
2019-05-30T18:47:10.907Z,19.80
2019-05-30T18:49:41.174Z,19.80
2019-05-30T18:52:11.486Z,19.80
2019-05-30T18:54:43.161Z,19.70
2019-05-30T18:57:13.352Z,19.60
2019-05-30T18:59:43.449Z,19.40
2019-05-30T19:02:18.375Z,19.00
2019-05-30T19:04:47.713Z,18.90
2019-05-30T19:07:18.147Z,18.80
2019-05-30T19:09:48.272Z,18.80
2019-05-30T19:12:18.500Z,18.80
2019-05-30T19:14:51.553Z,18.70
2019-05-30T19:17:25.554Z,18.70
2019-05-30T19:19:56.344Z,18.70
2019-05-30T19:22:26.423Z,18.70
2019-05-30T19:24:56.874Z,18.70
2019-05-30T19:27:28.713Z,18.70
2019-05-30T19:29:59.651Z,18.60
2019-05-30T19:32:30.669Z,18.60
2019-05-30T19:35:01.064Z,18.60
2019-05-30T19:37:31.732Z,18.60
2019-05-30T19:40:03.742Z,18.60
2019-05-30T19:42:33.974Z,18.50
2019-05-30T19:45:07.625Z,18.50
2019-05-30T19:47:38.946Z,18.40
2019-05-30T19:50:11.278Z,18.40
2019-05-30T19:52:41.660Z,18.30
2019-05-30T19:55:12.943Z,18.20
2019-05-30T19:57:43.131Z,17.90
2019-05-30T20:00:16.266Z,17.80
2019-05-30T20:02:46.607Z,17.50
2019-05-30T20:05:18.545Z,17.50
2019-05-30T20:07:49.040Z,17.50
2019-05-30T20:10:19.809Z,17.60
2019-05-30T20:12:50.047Z,17.50
2019-05-30T20:15:22.409Z,17.60
2019-05-30T20:17:53.294Z,17.60
2019-05-30T20:20:23.765Z,17.60
2019-05-30T20:22:54.120Z,17.40
2019-05-30T20:25:24.981Z,17.20
2019-05-30T20:27:55.111Z,17.20
2019-05-30T20:30:25.267Z,17.20
2019-05-30T20:32:55.538Z,17.20
2019-05-30T20:35:25.798Z,17.20
2019-05-30T20:38:01.365Z,17.20
2019-05-30T20:40:32.280Z,17.10
2019-05-30T20:43:02.464Z,17.10
2019-05-30T20:45:38.351Z,16.80
2019-05-30T20:48:08.029Z,16.80
2019-05-30T20:50:39.656Z,16.90
2019-05-30T20:53:10.319Z,16.90
2019-05-30T20:55:40.503Z,16.90
2019-05-30T20:58:13.105Z,16.90
2019-05-30T21:00:45.854Z,16.90
2019-05-30T21:03:16.193Z,16.80
2019-05-30T21:05:48.106Z,16.70
2019-05-30T21:08:18.638Z,16.70
2019-05-30T21:10:50.476Z,16.60
2019-05-30T21:13:21.951Z,16.60
2019-05-30T21:15:54.085Z,16.60
2019-05-30T21:18:27.736Z,16.50
2019-05-30T21:20:58.055Z,16.40
2019-05-30T21:23:33.165Z,16.40
2019-05-30T21:26:03.464Z,16.40
2019-05-30T21:28:33.859Z,16.40
2019-05-30T21:31:04.292Z,16.30
2019-05-30T21:33:34.632Z,16.20
2019-05-30T21:36:11.109Z,16.20
2019-05-30T21:38:41.919Z,16.00
2019-05-30T21:41:12.589Z,15.90
2019-05-30T21:43:44.565Z,15.90
2019-05-30T21:46:17.046Z,16.00
2019-05-30T21:48:47.563Z,16.00
2019-05-30T21:51:17.769Z,15.90
2019-05-30T21:53:48.313Z,16.00
2019-05-30T21:56:18.647Z,16.00
2019-05-30T21:58:50.339Z,16.10
2019-05-30T22:01:34.165Z,16.10
2019-05-30T22:04:05.428Z,16.10
2019-05-30T22:06:37.845Z,16.10
2019-05-30T22:09:10.028Z,16.00
2019-05-30T22:11:43.764Z,15.90
2019-05-30T22:14:14.845Z,15.90
2019-05-30T22:16:45.920Z,15.80
2019-05-30T22:19:21.179Z,15.80
2019-05-30T22:21:52.341Z,15.70
2019-05-30T22:24:23.479Z,15.70
2019-05-30T22:26:53.912Z,15.80
2019-05-30T22:29:24.323Z,15.80
2019-05-30T22:31:54.677Z,15.80
2019-05-30T22:34:24.984Z,15.80
2019-05-30T22:36:55.299Z,15.80
2019-05-30T22:39:25.868Z,15.80
2019-05-30T22:41:56.442Z,15.80
2019-05-30T22:44:26.865Z,15.80
2019-05-30T22:46:57.087Z,15.80
2019-05-30T22:49:27.276Z,15.70
2019-05-30T22:51:57.407Z,15.70
2019-05-30T22:54:27.529Z,15.80
2019-05-30T22:57:01.049Z,15.80
2019-05-30T22:59:29.431Z,15.90
2019-05-30T23:01:59.720Z,15.90
2019-05-30T23:04:29.801Z,16.00
2019-05-30T23:06:59.910Z,16.10
2019-05-30T23:09:30.002Z,15.90
2019-05-30T23:12:00.119Z,15.90
2019-05-30T23:14:30.254Z,15.70
2019-05-30T23:17:00.445Z,15.60
2019-05-30T23:19:32.669Z,15.50
2019-05-30T23:22:02.828Z,15.50
2019-05-30T23:24:32.935Z,15.40
2019-05-30T23:27:03.050Z,15.30
2019-05-30T23:29:33.115Z,15.20
2019-05-30T23:32:03.391Z,15.20
2019-05-30T23:34:33.470Z,15.20
2019-05-30T23:37:03.608Z,15.30
2019-05-30T23:39:33.955Z,15.40
2019-05-30T23:42:04.067Z,15.40
2019-05-30T23:44:34.342Z,15.40
2019-05-30T23:47:04.507Z,15.20
2019-05-30T23:49:34.652Z,15.20
2019-05-30T23:52:04.730Z,15.20
2019-05-30T23:54:34.831Z,15.10
2019-05-30T23:57:04.894Z,15.20
2019-05-30T23:59:35.057Z,15.20
